Time;durP1;ratioP1;P1;durP2;ratioP2;P2;SDS_P1;SDS_P2;PMS_P1;PMS_P2;Temp;Humidity;BMP_temperature;BMP_pressure;BME280_temperature;BME280_humidity;BME280_pressure;Samples;Min_cycle;Max_cycle;Signal;HPM_P1;HPM_P2
2021/04/16 00:00:22;;;;;;;;;;;;;;;17.90;29.61;100927.47;4416769;32;19949;-56
2021/04/16 00:02:48;;;;;;;;;;;;;;;17.80;29.70;100922.75;4415660;32;20206;-55
2021/04/16 00:05:13;;;;;;;;;;;;;;;17.87;29.67;100919.47;4414346;32;19974;-55
2021/04/16 00:07:39;;;;;;;;;;;;;;;17.88;29.61;100920.34;4415369;32;20008;-56
2021/04/16 00:10:05;;;;;;;;;;;;;;;17.88;29.54;100915.09;4415273;32;20341;-54
2021/04/16 00:12:31;;;;;;;;;;;;;;;17.86;29.64;100920.31;4416594;32;19982;-56
2021/04/16 00:14:57;;;;;;;;;;;;;;;17.78;29.76;100913.91;4415614;32;20548;-54
2021/04/16 00:17:23;;;;;;;;;;;;;;;17.64;29.94;100911.72;4415257;32;20053;-56
2021/04/16 00:19:49;;;;;;;;;;;;;;;17.64;29.94;100916.09;4418190;32;20017;-54
2021/04/16 00:22:15;;;;;;;;;;;;;;;17.72;29.80;100919.88;4418268;32;19958;-56
2021/04/16 00:24:40;;;;;;;;;;;;;;;17.74;29.86;100922.56;4416230;32;19979;-52
2021/04/16 00:27:06;;;;;;;;;;;;;;;17.76;29.82;100912.97;4416151;32;20622;-54
2021/04/16 00:29:32;;;;;;;;;;;;;;;17.74;29.90;100912.03;4415734;32;19953;-55
2021/04/16 00:31:58;;;;;;;;;;;;;;;17.71;29.82;100915.44;4417221;32;20010;-56
2021/04/16 00:34:24;;;;;;;;;;;;;;;17.73;29.80;100912.88;4416558;32;19968;-56
2021/04/16 00:36:50;;;;;;;;;;;;;;;17.73;29.87;100900.59;4417267;32;19939;-55
2021/04/16 00:39:16;;;;;;;;;;;;;;;17.61;29.94;100900.19;4417093;32;19959;-56
2021/04/16 00:41:42;;;;;;;;;;;;;;;17.65;29.91;100896.81;4418503;32;19950;-56
2021/04/16 00:44:07;;;;;;;;;;;;;;;17.69;29.88;100893.44;4416862;32;19966;-57
2021/04/16 00:46:33;;;;;;;;;;;;;;;17.67;29.94;100890.75;4417210;32;20420;-55
2021/04/16 00:48:59;;;;;;;;;;;;;;;17.70;29.80;100884.69;4415542;32;19988;-57
2021/04/16 00:51:25;;;;;;;;;;;;;;;17.69;29.88;100888.19;4415692;32;20325;-55
2021/04/16 00:53:51;;;;;;;;;;;;;;;17.75;29.80;100876.94;4417729;32;19980;-53
2021/04/16 00:56:17;;;;;;;;;;;;;;;17.68;29.80;100884.63;4415601;32;20279;-56
2021/04/16 00:58:43;;;;;;;;;;;;;;;17.68;29.84;100879.38;4415783;32;20603;-55
2021/04/16 01:01:09;;;;;;;;;;;;;;;17.65;29.92;100876.63;4415687;32;20041;-54
2021/04/16 01:03:34;;;;;;;;;;;;;;;17.61;30.01;100880.03;4417511;32;20011;-54
2021/04/16 01:06:00;;;;;;;;;;;;;;;17.64;29.95;100880.13;4417216;32;19957;-56
2021/04/16 01:08:26;;;;;;;;;;;;;;;17.66;29.92;100881.06;4416321;32;19942;-56
2021/04/16 01:10:52;;;;;;;;;;;;;;;17.62;29.99;100887.09;4415467;32;19954;-55
2021/04/16 01:13:19;;;;;;;;;;;;;;;17.63;29.98;100875.69;4416587;32;19950;-54
2021/04/16 01:15:52;;;;;;;;;;;;;;;17.65;29.81;100867.81;4417372;32;20294;-54
2021/04/16 01:18:18;;;;;;;;;;;;;;;17.63;29.92;100877.44;4416296;32;19976;-56
2021/04/16 01:20:44;;;;;;;;;;;;;;;17.61;29.90;100874.75;4414925;32;19954;-53
2021/04/16 01:23:10;;;;;;;;;;;;;;;17.67;29.84;100874.94;4415480;32;19961;-52
2021/04/16 01:25:36;;;;;;;;;;;;;;;17.64;29.94;100876.59;4417658;32;19954;-57
2021/04/16 01:28:02;;;;;;;;;;;;;;;17.60;30.09;100869.44;4415567;32;20315;-53
2021/04/16 01:30:27;;;;;;;;;;;;;;;17.55;30.02;100864.03;4415416;32;20429;-55
2021/04/16 01:32:53;;;;;;;;;;;;;;;17.59;29.92;100876.44;4415562;32;20348;-55
2021/04/16 01:35:19;;;;;;;;;;;;;;;17.60;30.00;100872.06;4416337;32;20023;-55
2021/04/16 01:37:45;;;;;;;;;;;;;;;17.60;29.86;100867.72;4415675;32;19988;-56
2021/04/16 01:40:11;;;;;;;;;;;;;;;17.60;29.91;100866.81;4414321;32;19946;-55
2021/04/16 01:42:37;;;;;;;;;;;;;;;17.62;30.00;100862.47;4416200;32;19987;-55
2021/04/16 01:45:03;;;;;;;;;;;;;;;17.56;29.96;100860.53;4416615;32;19950;-57
2021/04/16 01:47:29;;;;;;;;;;;;;;;17.62;29.90;100860.75;4415724;32;19954;-54
2021/04/16 01:49:55;;;;;;;;;;;;;;;17.59;29.93;100865.91;4415358;32;20326;-56
2021/04/16 01:52:21;;;;;;;;;;;;;;;17.64;29.85;100859.06;4415834;32;19950;-55
2021/04/16 01:54:47;;;;;;;;;;;;;;;17.62;29.99;100862.47;4416225;32;20363;-56
2021/04/16 01:57:13;;;;;;;;;;;;;;;17.65;29.78;100858.22;4415694;32;20009;-55
2021/04/16 01:59:38;;;;;;;;;;;;;;;17.63;29.86;100859.91;4416141;32;19972;-55
2021/04/16 02:02:04;;;;;;;;;;;;;;;17.67;29.90;100855.62;4415110;32;19969;-55
2021/04/16 02:04:30;;;;;;;;;;;;;;;17.66;29.89;100854.72;4416818;32;20302;-56
2021/04/16 02:06:56;;;;;;;;;;;;;;;17.60;29.95;100857.19;4416020;32;19969;-56
2021/04/16 02:09:22;;;;;;;;;;;;;;;17.62;29.93;100850.22;4416602;32;19987;-54
2021/04/16 02:11:48;;;;;;;;;;;;;;;17.61;30.02;100853.69;4417350;32;19981;-53
2021/04/16 02:14:14;;;;;;;;;;;;;;;17.61;29.93;100848.44;4414454;32;19950;-53
2021/04/16 02:16:40;;;;;;;;;;;;;;;17.65;29.80;100846.75;4414635;32;19953;-55
2021/04/16 02:19:05;;;;;;;;;;;;;;;17.58;29.92;100843.03;4414484;32;20397;-56
2021/04/16 02:21:31;;;;;;;;;;;;;;;17.57;30.01;100841.25;4414290;32;19946;-55
2021/04/16 02:23:57;;;;;;;;;;;;;;;17.63;29.93;100840.56;4416334;32;20320;-56
2021/04/16 02:26:23;;;;;;;;;;;;;;;17.61;30.01;100837.91;4418838;32;20041;-56
2021/04/16 02:28:49;;;;;;;;;;;;;;;17.59;29.99;100839.56;4419413;32;20349;-54
2021/04/16 02:31:15;;;;;;;;;;;;;;;17.57;29.98;100841.25;4413277;32;19998;-57
2021/04/16 02:33:42;;;;;;;;;;;;;;;17.60;29.96;100840.47;4403030;32;20489;-55
2021/04/16 02:36:08;;;;;;;;;;;;;;;17.59;30.02;100839.56;4404973;32;20377;-57
2021/04/16 02:38:34;;;;;;;;;;;;;;;17.58;29.99;100837.78;4417463;32;19946;-57
2021/04/16 02:40:59;;;;;;;;;;;;;;;17.47;30.12;100829.56;4418088;32;19984;-54
2021/04/16 02:43:25;;;;;;;;;;;;;;;17.58;30.06;100836.91;4418253;32;19954;-54
2021/04/16 02:45:51;;;;;;;;;;;;;;;17.56;30.01;100829.84;4416821;32;19954;-55
2021/04/16 02:48:17;;;;;;;;;;;;;;;17.60;29.91;100833.47;4416557;32;19942;-57
2021/04/16 02:50:43;;;;;;;;;;;;;;;17.62;29.88;100842.31;4418413;32;20331;-53
2021/04/16 02:53:09;;;;;;;;;;;;;;;17.57;30.10;100836.00;4416909;32;19993;-55
2021/04/16 02:55:35;;;;;;;;;;;;;;;17.51;30.12;100841.06;4418430;32;20327;-57
2021/04/16 02:58:01;;;;;;;;;;;;;;;17.46;30.14;100837.37;4417464;32;19969;-56
2021/04/16 03:00:26;;;;;;;;;;;;;;;17.46;30.23;100834.75;4416440;32;19993;-56
2021/04/16 03:02:52;;;;;;;;;;;;;;;17.50;30.23;100836.66;4406226;32;19965;-57
2021/04/16 03:05:18;;;;;;;;;;;;;;;17.46;30.21;100834.75;4402427;32;19960;-56
2021/04/16 03:07:44;;;;;;;;;;;;;;;17.47;30.19;100829.56;4412066;32;20252;-54
2021/04/16 03:10:10;;;;;;;;;;;;;;;17.54;30.09;100828.00;4418361;32;20327;-56
2021/04/16 03:12:36;;;;;;;;;;;;;;;17.53;30.07;100828.84;4409355;32;19943;-56
2021/04/16 03:15:02;;;;;;;;;;;;;;;17.53;30.15;100828.84;4403808;32;19951;-54
2021/04/16 03:17:28;;;;;;;;;;;;;;;17.51;30.15;100825.28;4403777;32;20056;-55
2021/04/16 03:19:54;;;;;;;;;;;;;;;17.46;30.24;100827.75;4417709;32;19962;-55
2021/04/16 03:22:20;;;;;;;;;;;;;;;17.44;30.34;100828.56;4417157;32;19983;-55
2021/04/16 03:24:46;;;;;;;;;;;;;;;17.51;30.15;100820.00;4417854;32;19993;-55
2021/04/16 03:27:12;;;;;;;;;;;;;;;17.55;30.11;100821.88;4412023;32;19980;-52
2021/04/16 03:29:38;;;;;;;;;;;;;;;17.53;30.14;100823.59;4402540;32;19987;-57
2021/04/16 03:32:03;;;;;;;;;;;;;;;17.60;30.01;100819.41;4405001;32;19984;-56
2021/04/16 03:34:29;;;;;;;;;;;;;;;17.51;30.08;100815.63;4417892;32;19952;-54
2021/04/16 03:36:55;;;;;;;;;;;;;;;17.49;30.19;100816.44;4415344;32;19950;-56
2021/04/16 03:39:21;;;;;;;;;;;;;;;17.48;30.22;100819.94;4417902;32;19951;-56
2021/04/16 03:41:47;;;;;;;;;;;;;;;17.44;30.36;100824.19;4418871;32;19946;-54
2021/04/16 03:44:13;;;;;;;;;;;;;;;17.44;30.25;100818.03;4416847;32;21141;-56
2021/04/16 03:46:39;;;;;;;;;;;;;;;17.45;30.21;100810.19;4415992;32;20004;-55
2021/04/16 03:49:05;;;;;;;;;;;;;;;17.52;30.19;100812.12;4416323;32;19987;-57
2021/04/16 03:51:30;;;;;;;;;;;;;;;17.47;30.27;100813.75;4417439;32;20707;-56
2021/04/16 03:53:56;;;;;;;;;;;;;;;17.39;30.32;100818.78;4418382;32;20336;-54
2021/04/16 03:56:22;;;;;;;;;;;;;;;17.42;30.37;100820.63;4416041;32;20367;-54
2021/04/16 03:58:48;;;;;;;;;;;;;;;17.53;30.19;100813.06;4406655;32;19960;-56
2021/04/16 04:01:16;;;;;;;;;;;;;;;17.56;30.12;100818.41;4400924;32;19965;-55
2021/04/16 04:03:42;;;;;;;;;;;;;;;17.55;30.13;100816.63;4411398;32;19988;-55
2021/04/16 04:06:08;;;;;;;;;;;;;;;17.41;30.40;100811.81;4417030;32;19953;-55
2021/04/16 04:08:34;;;;;;;;;;;;;;;17.48;30.32;100814.66;4415622;32;19942;-56
2021/04/16 04:11:00;;;;;;;;;;;;;;;17.52;30.24;100817.41;4417429;32;20028;-55
2021/04/16 04:13:27;;;;;;;;;;;;;;;17.45;30.41;100815.44;4416963;32;20343;-56
2021/04/16 04:15:52;;;;;;;;;;;;;;;17.47;30.36;100818.09;4416481;32;19953;-55
2021/04/16 04:18:18;;;;;;;;;;;;;;;17.50;30.30;100812.97;4415197;32;20358;-56
2021/04/16 04:20:44;;;;;;;;;;;;;;;17.52;30.27;100814.78;4416944;32;19973;-57
2021/04/16 04:23:10;;;;;;;;;;;;;;;17.44;30.31;100811.03;4416572;32;20346;-56
2021/04/16 04:25:36;;;;;;;;;;;;;;;17.42;30.45;100815.34;4416940;32;20351;-57
2021/04/16 04:28:02;;;;;;;;;;;;;;;17.48;30.36;100809.41;4416991;32;19938;-55
2021/04/16 04:30:28;;;;;;;;;;;;;;;17.43;30.31;100811.88;4414037;32;21300;-55
2021/04/16 04:32:54;;;;;;;;;;;;;;;17.45;30.29;100814.53;4417001;32;19958;-56
2021/04/16 04:35:20;;;;;;;;;;;;;;;17.48;30.29;100812.03;4416226;32;19950;-56
2021/04/16 04:37:46;;;;;;;;;;;;;;;17.45;30.37;100822.44;4416118;32;19950;-55
2021/04/16 04:40:11;;;;;;;;;;;;;;;17.33;30.61;100821.19;4417717;32;19962;-54
2021/04/16 04:42:37;;;;;;;;;;;;;;;17.42;30.41;100813.59;4417817;32;19962;-54
2021/04/16 04:45:03;;;;;;;;;;;;;;;17.46;30.45;100811.06;4414219;32;19942;-54
2021/04/16 04:47:29;;;;;;;;;;;;;;;17.44;30.38;100816.28;4415082;32;19938;-55
2021/04/16 04:49:55;;;;;;;;;;;;;;;17.46;30.35;100816.31;4416972;32;20352;-56
2021/04/16 04:52:21;;;;;;;;;;;;;;;17.46;30.27;100817.22;4417314;32;19942;-57
2021/04/16 04:54:47;;;;;;;;;;;;;;;17.42;30.42;100812.72;4416668;32;19943;-56
2021/04/16 04:57:12;;;;;;;;;;;;;;;17.40;30.42;100812.66;4413717;32;20347;-56
2021/04/16 04:59:38;;;;;;;;;;;;;;;17.44;30.42;100812.75;4413032;32;19950;-56
2021/04/16 05:02:04;;;;;;;;;;;;;;;17.40;30.42;100806.50;4413731;32;20311;-54
2021/04/16 05:04:30;;;;;;;;;;;;;;;17.38;30.40;100814.38;4416674;32;19938;-56
2021/04/16 05:06:56;;;;;;;;;;;;;;;17.37;30.53;100809.03;4415849;32;19958;-56
2021/04/16 05:09:22;;;;;;;;;;;;;;;17.49;30.34;100811.19;4416767;32;19979;-56
2021/04/16 05:11:48;;;;;;;;;;;;;;;17.46;30.37;100811.06;4415073;32;19943;-56
2021/04/16 05:14:14;;;;;;;;;;;;;;;17.38;30.52;100814.38;4415447;32;20002;-54
2021/04/16 05:16:40;;;;;;;;;;;;;;;17.39;30.52;100808.25;4416447;32;20125;-57
2021/04/16 05:19:05;;;;;;;;;;;;;;;17.31;30.67;100811.50;4416617;32;19990;-56
2021/04/16 05:21:33;;;;;;;;;;;;;;;17.32;30.64;100814.16;4416130;32;19965;-54
2021/04/16 05:23:59;;;;;;;;;;;;;;;17.31;30.60;100815.00;4416847;32;20357;-56
2021/04/16 05:26:25;;;;;;;;;;;;;;;17.38;30.49;100808.19;4415953;32;20005;-56
2021/04/16 05:28:51;;;;;;;;;;;;;;;17.44;30.42;100812.75;4415940;32;20287;-57
2021/04/16 05:31:17;;;;;;;;;;;;;;;17.33;30.60;100805.41;4416092;32;20292;-54
2021/04/16 05:33:42;;;;;;;;;;;;;;;17.39;30.47;100805.63;4416453;32;19984;-56
2021/04/16 05:36:08;;;;;;;;;;;;;;;17.43;30.41;100817.16;4416112;32;19938;-56
2021/04/16 05:38:34;;;;;;;;;;;;;;;17.38;30.55;100816.09;4416728;32;19938;-55
2021/04/16 05:41:00;;;;;;;;;;;;;;;17.35;30.63;100809.00;4415677;32;19950;-55
2021/04/16 05:43:26;;;;;;;;;;;;;;;17.38;30.54;100803.84;4413880;32;19962;-57
2021/04/16 05:45:52;;;;;;;;;;;;;;;17.36;30.57;100816.06;4416071;32;19999;-57
2021/04/16 05:48:18;;;;;;;;;;;;;;;17.43;30.48;100817.16;4414536;32;19983;-55
2021/04/16 05:50:44;;;;;;;;;;;;;;;17.41;30.51;100819.72;4406943;32;20375;-56
2021/04/16 05:53:09;;;;;;;;;;;;;;;17.44;30.43;100825.91;4415749;32;20033;-56
2021/04/16 05:55:35;;;;;;;;;;;;;;;17.48;30.35;100826.06;4415552;32;20005;-57
2021/04/16 05:58:01;;;;;;;;;;;;;;;17.53;30.31;100823.59;4414218;32;19946;-55
2021/04/16 06:00:27;;;;;;;;;;;;;;;17.51;30.28;100823.53;4414475;32;20351;-57
2021/04/16 06:02:53;;;;;;;;;;;;;;;17.65;30.13;100829.22;4417704;32;20006;-56
2021/04/16 06:05:19;;;;;;;;;;;;;;;17.68;30.02;100824.06;4418559;32;20041;-56
2021/04/16 06:07:45;;;;;;;;;;;;;;;17.58;30.21;100829.87;4417685;32;20338;-56
2021/04/16 06:10:11;;;;;;;;;;;;;;;17.57;30.52;100825.47;4417201;32;20383;-55
2021/04/16 06:12:37;;;;;;;;;;;;;;;17.63;30.63;100832.66;4416564;32;19950;-55
2021/04/16 06:15:03;;;;;;;;;;;;;;;17.45;30.76;100822.44;4417224;32;19962;-57
2021/04/16 06:17:30;;;;;;;;;;;;;;;17.53;30.52;100823.59;4418347;32;20007;-53
2021/04/16 06:19:56;;;;;;;;;;;;;;;17.52;30.71;100821.81;4417700;32;19950;-55
2021/04/16 06:22:22;;;;;;;;;;;;;;;17.57;30.46;100825.47;4415656;32;20252;-55
2021/04/16 06:24:47;;;;;;;;;;;;;;;17.55;30.45;100830.69;4415098;32;19977;-56
2021/04/16 06:27:13;;;;;;;;;;;;;;;17.55;30.44;100827.16;4414354;32;19958;-55
2021/04/16 06:29:39;;;;;;;;;;;;;;;17.68;30.25;100825.81;4415486;32;19981;-57
2021/04/16 06:32:05;;;;;;;;;;;;;;;17.69;30.16;100828.47;4414591;32;19951;-57
2021/04/16 06:34:31;;;;;;;;;;;;;;;17.63;30.26;100823.03;4416145;32;19994;-55
2021/04/16 06:36:57;;;;;;;;;;;;;;;17.64;30.31;100830.09;4415563;32;20415;-56
2021/04/16 06:39:23;;;;;;;;;;;;;;;17.62;30.31;100820.34;4414473;32;20057;-57
2021/04/16 06:41:49;;;;;;;;;;;;;;;17.63;30.31;100822.12;4415806;32;20400;-55
2021/04/16 06:44:15;;;;;;;;;;;;;;;17.64;30.29;100827.44;4416843;32;19954;-54
2021/04/16 06:46:41;;;;;;;;;;;;;;;17.56;30.43;100828.94;4416012;32;19961;-56
2021/04/16 06:49:06;;;;;;;;;;;;;;;17.58;30.42;100827.25;4416363;32;20221;-57
2021/04/16 06:51:32;;;;;;;;;;;;;;;17.53;30.49;100823.59;4416662;32;19946;-55
2021/04/16 06:53:58;;;;;;;;;;;;;;;17.54;30.48;100828.00;4416099;32;19973;-57
2021/04/16 06:56:24;;;;;;;;;;;;;;;17.48;30.59;100825.19;4415968;32;19980;-56
2021/04/16 06:58:50;;;;;;;;;;;;;;;17.57;30.45;100828.09;4416132;32;19949;-57
2021/04/16 07:01:16;;;;;;;;;;;;;;;17.63;30.37;100830.94;4415607;32;19973;-56
2021/04/16 07:03:42;;;;;;;;;;;;;;;17.56;30.50;100836.84;4415964;32;19973;-55
2021/04/16 07:06:08;;;;;;;;;;;;;;;17.55;30.48;100837.69;4416351;32;19950;-56
2021/04/16 07:08:34;;;;;;;;;;;;;;;17.61;30.53;100843.16;4415550;32;19946;-56
2021/04/16 07:11:00;;;;;;;;;;;;;;;17.73;30.25;100836.50;4414277;32;19995;-54
2021/04/16 07:13:26;;;;;;;;;;;;;;;17.73;30.24;100836.50;4416933;32;20062;-56
2021/04/16 07:15:52;;;;;;;;;;;;;;;17.67;30.29;100840.69;4416651;32;19946;-55
2021/04/16 07:18:18;;;;;;;;;;;;;;;17.78;30.15;100835.78;4413053;32;20002;-52
2021/04/16 07:20:43;;;;;;;;;;;;;;;17.55;29.93;100845.59;4413053;32;19977;-51
2021/04/16 07:23:09;;;;;;;;;;;;;;;17.38;30.83;100845.94;4388475;32;19979;-51
2021/04/16 07:25:35;;;;;;;;;;;;;;;17.79;30.22;100836.66;4384048;32;19967;-52
2021/04/16 07:28:01;;;;;;;;;;;;;;;17.82;30.12;100847.28;4400307;32;19996;-51
2021/04/16 07:30:27;;;;;;;;;;;;;;;17.92;29.87;100843.22;4415498;32;19958;-51
2021/04/16 07:32:53;;;;;;;;;;;;;;;18.01;29.78;100843.47;4415084;32;19965;-50
2021/04/16 07:35:19;;;;;;;;;;;;;;;18.01;29.79;100842.59;4414342;32;19946;-52
2021/04/16 07:37:46;;;;;;;;;;;;;;;18.04;29.76;100847.97;4415761;32;19950;-51
2021/04/16 07:40:11;;;;;;;;;;;;;;;18.07;29.73;100848.06;4414591;32;19957;-52
2021/04/16 07:42:38;;;;;;;;;;;;;;;18.09;29.71;100842.00;4401787;32;19954;-53
2021/04/16 07:45:03;;;;;;;;;;;;;;;18.07;29.74;100842.78;4415626;32;19967;-51
2021/04/16 07:47:29;;;;;;;;;;;;;;;18.12;29.70;100842.06;4403397;32;19981;-49
2021/04/16 07:49:55;;;;;;;;;;;;;;;18.14;29.67;100850.03;4399938;32;19966;-51
2021/04/16 07:52:21;;;;;;;;;;;;;;;18.15;29.69;100851.81;4409515;32;19950;-53
2021/04/16 07:54:47;;;;;;;;;;;;;;;18.18;29.64;100851.03;4414736;32;19950;-50
2021/04/16 07:57:13;;;;;;;;;;;;;;;18.16;29.68;100858.88;4415579;32;19958;-52
2021/04/16 07:59:39;;;;;;;;;;;;;;;18.15;29.67;100849.19;4415636;32;19954;-51
2021/04/16 08:02:05;;;;;;;;;;;;;;;18.15;29.61;100846.53;4413000;32;20573;-49
2021/04/16 08:04:30;;;;;;;;;;;;;;;18.12;29.61;100841.19;4416518;32;19962;-55
2021/04/16 08:06:56;;;;;;;;;;;;;;;17.84;30.15;100841.22;4415892;32;19976;-52
2021/04/16 08:09:22;;;;;;;;;;;;;;;17.75;30.34;100848.84;4413863;32;19954;-51
2021/04/16 08:11:48;;;;;;;;;;;;;;;17.80;30.36;100843.72;4416206;32;19942;-51
2021/04/16 08:14:14;;;;;;;;;;;;;;;17.79;30.46;100847.19;4415027;32;19943;-50
2021/04/16 08:16:40;;;;;;;;;;;;;;;17.97;30.15;100842.50;4414157;32;19993;-49
2021/04/16 08:19:06;;;;;;;;;;;;;;;18.07;29.99;100842.78;4415122;32;19991;-53
2021/04/16 08:21:32;;;;;;;;;;;;;;;17.93;30.30;100840.59;4415248;32;19973;-55
2021/04/16 08:24:01;;;;;;;;;;;;;;;17.87;30.24;100845.69;4415553;32;20014;-52
2021/04/16 08:26:28;;;;;;;;;;;;;;;17.90;30.40;100845.78;4415417;32;20016;-50
2021/04/16 08:28:54;;;;;;;;;;;;;;;18.01;30.32;100848.72;4415419;32;19999;-53
2021/04/16 08:31:20;;;;;;;;;;;;;;;18.18;30.05;100851.03;4415170;32;19994;-51
2021/04/16 08:33:46;;;;;;;;;;;;;;;18.22;29.98;100852.88;4411128;32;20015;-51
2021/04/16 08:36:12;;;;;;;;;;;;;;;18.24;29.97;100851.19;4413242;32;19966;-49
2021/04/16 08:38:37;;;;;;;;;;;;;;;18.32;29.82;100843.47;4414881;32;19977;-52
2021/04/16 08:41:03;;;;;;;;;;;;;;;18.31;29.87;100846.97;4412710;32;20065;-50
2021/04/16 08:43:29;;;;;;;;;;;;;;;18.27;29.95;100851.25;4414430;32;20729;-54
2021/04/16 08:45:55;;;;;;;;;;;;;;;18.33;29.82;100855.81;4412830;32;19962;-53
2021/04/16 08:48:22;;;;;;;;;;;;;;;18.35;29.77;100847.09;4411042;32;19965;-53
2021/04/16 08:50:48;;;;;;;;;;;;;;;18.08;29.86;100842.84;4412952;32;19961;-49
2021/04/16 08:53:14;;;;;;;;;;;;;;;18.07;29.99;100837.50;4412809;32;19958;-54
2021/04/16 08:55:40;;;;;;;;;;;;;;;17.98;30.25;100844.28;4413741;32;20034;-53
2021/04/16 08:58:05;;;;;;;;;;;;;;;18.10;29.84;100837.63;4412570;32;19950;-55
2021/04/16 09:00:31;;;;;;;;;;;;;;;17.61;28.77;100847.53;4414515;32;19986;-53
2021/04/16 09:02:58;;;;;;;;;;;;;;;17.63;29.84;100846.72;4413168;32;19953;-53
2021/04/16 09:05:24;;;;;;;;;;;;;;;17.83;29.70;100849.06;4411601;32;20038;-51
2021/04/16 09:07:49;;;;;;;;;;;;;;;17.89;29.74;100844.00;4411633;32;19996;-54
2021/04/16 09:10:15;;;;;;;;;;;;;;;18.00;29.65;100840.78;4412202;32;19938;-53
2021/04/16 09:12:41;;;;;;;;;;;;;;;18.15;29.39;100837.72;4414260;32;19988;-52
2021/04/16 09:15:07;;;;;;;;;;;;;;;18.21;29.34;100840.56;4413894;32;19965;-55
2021/04/16 09:17:33;;;;;;;;;;;;;;;18.27;29.15;100846.00;4414155;32;19968;-53
2021/04/16 09:19:59;;;;;;;;;;;;;;;18.25;29.13;100845.97;4415267;32;20307;-51
2021/04/16 09:22:25;;;;;;;;;;;;;;;18.26;29.22;100842.47;4413094;32;19958;-53
2021/04/16 09:24:52;;;;;;;;;;;;;;;18.32;29.16;100848.75;4416986;32;19964;-51
2021/04/16 09:27:17;;;;;;;;;;;;;;;18.33;29.17;100840.00;4412424;32;20007;-52
2021/04/16 09:29:43;;;;;;;;;;;;;;;18.33;29.18;100838.28;4414781;32;19962;-52
2021/04/16 09:32:09;;;;;;;;;;;;;;;18.30;29.29;100832.91;4412761;32;20362;-52
2021/04/16 09:34:35;;;;;;;;;;;;;;;18.29;29.32;100839.03;4415156;32;19951;-53
2021/04/16 09:37:01;;;;;;;;;;;;;;;18.31;29.31;100839.06;4413396;32;20331;-51
2021/04/16 09:39:27;;;;;;;;;;;;;;;18.32;29.28;100838.22;4414420;32;19958;-49
2021/04/16 09:41:55;;;;;;;;;;;;;;;18.36;29.23;100833.06;4414902;32;19993;-53
2021/04/16 09:44:21;;;;;;;;;;;;;;;18.36;29.26;100829.56;4403613;32;19963;-49
2021/04/16 09:46:46;;;;;;;;;;;;;;;18.35;29.24;100835.69;4398373;32;20203;-53
2021/04/16 09:49:12;;;;;;;;;;;;;;;18.37;29.20;100836.63;4406645;32;19985;-52
2021/04/16 09:51:38;;;;;;;;;;;;;;;18.37;29.21;100833.97;4415352;32;19958;-51
2021/04/16 09:54:04;;;;;;;;;;;;;;;18.37;29.23;100831.34;4413343;32;19946;-52
2021/04/16 09:56:30;;;;;;;;;;;;;;;18.36;29.17;100829.56;4413319;32;20257;-53
2021/04/16 09:58:56;;;;;;;;;;;;;;;18.35;29.19;100830.41;4415811;32;20484;-52
2021/04/16 10:01:22;;;;;;;;;;;;;;;18.34;29.25;100831.25;4413936;32;19964;-51
2021/04/16 10:03:48;;;;;;;;;;;;;;;18.37;29.17;100826.06;4414357;32;20003;-54
2021/04/16 10:06:14;;;;;;;;;;;;;;;18.13;26.78;100827.16;4413256;32;20018;-48
2021/04/16 10:08:40;;;;;;;;;;;;;;;17.22;28.21;100817.31;4415109;32;19986;-53
2021/04/16 10:11:05;;;;;;;;;;;;;;;17.54;28.89;100821.00;4415056;32;20267;-50
2021/04/16 10:13:31;;;;;;;;;;;;;;;17.73;28.96;100813.66;4414233;32;19997;-53
2021/04/16 10:15:57;;;;;;;;;;;;;;;17.88;28.80;100814.97;4413590;32;19958;-51
2021/04/16 10:18:23;;;;;;;;;;;;;;;17.99;28.60;100818.81;4414660;32;20038;-51
2021/04/16 10:20:49;;;;;;;;;;;;;;;18.06;28.38;100819.91;4415243;32;20022;-51
2021/04/16 10:23:15;;;;;;;;;;;;;;;18.13;28.32;100827.16;4415791;32;20393;-52
2021/04/16 10:29:19;;;;;;;;;;;;;;;18.22;28.27;100822.16;4415360;32;19959;-52
2021/04/16 11:08:04;;;;;;;;;;;;;;;17.21;27.65;100799.75;4404115;32;19962;-50
2021/04/16 12:39:06;;;;;;;;;;;;;;;18.67;28.83;100809.28;4413145;32;20404;-53
2021/04/16 12:41:32;;;;;;;;;;;;;;;18.65;28.58;100805.72;4416138;32;20290;-49
2021/04/16 12:43:58;;;;;;;;;;;;;;;18.70;28.77;100806.72;4416064;32;19958;-54
2021/04/16 12:46:24;;;;;;;;;;;;;;;18.71;28.84;100805.88;4413225;32;20339;-53
2021/04/16 12:48:50;;;;;;;;;;;;;;;18.80;28.78;100803.47;4414002;32;20023;-53
2021/04/16 12:51:16;;;;;;;;;;;;;;;18.77;28.93;100799.87;4415985;32;20065;-50
2021/04/16 12:53:41;;;;;;;;;;;;;;;18.76;29.24;100801.59;4414219;32;19950;-51
2021/04/16 12:56:07;;;;;;;;;;;;;;;18.78;28.94;100791.97;4416430;32;20355;-51
2021/04/16 12:58:33;;;;;;;;;;;;;;;18.88;28.82;100805.41;4413926;32;19969;-53
2021/04/16 13:01:01;;;;;;;;;;;;;;;18.88;28.97;100808.06;4414608;32;19965;-52
2021/04/16 13:03:27;;;;;;;;;;;;;;;18.92;29.09;100796.72;4415484;32;19958;-50
2021/04/16 13:05:53;;;;;;;;;;;;;;;18.95;28.97;100805.59;4414186;32;19976;-52
2021/04/16 13:08:19;;;;;;;;;;;;;;;18.99;28.90;100811.88;4413618;32;19965;-52
2021/04/16 13:10:45;;;;;;;;;;;;;;;18.87;29.14;100801.88;4414742;32;20303;-52
2021/04/16 13:13:11;;;;;;;;;;;;;;;18.87;29.34;100801.00;4413415;32;20032;-52
2021/04/16 13:15:36;;;;;;;;;;;;;;;18.92;29.20;100799.34;4411917;32;20310;-48
2021/04/16 13:18:02;;;;;;;;;;;;;;;19.01;29.02;100799.63;4416227;32;19949;-48
2021/04/16 13:20:28;;;;;;;;;;;;;;;19.06;29.07;100797.97;4413588;32;19989;-48
2021/04/16 13:22:54;;;;;;;;;;;;;;;19.08;29.00;100792.75;4416107;32;20214;-53
2021/04/16 13:25:20;;;;;;;;;;;;;;;19.04;29.05;100789.13;4413485;32;19993;-49
2021/04/16 13:27:46;;;;;;;;;;;;;;;19.07;28.91;100791.84;4414813;32;19949;-52
2021/04/16 13:30:12;;;;;;;;;;;;;;;19.09;28.86;100791.88;4415199;32;20021;-48
2021/04/16 13:32:38;;;;;;;;;;;;;;;19.08;28.81;100788.38;4414188;32;19974;-51
2021/04/16 13:35:04;;;;;;;;;;;;;;;19.08;28.93;100785.72;4414656;32;20357;-52
2021/04/16 13:37:29;;;;;;;;;;;;;;;19.02;28.92;100784.69;4412716;32;19957;-51
2021/04/16 13:39:55;;;;;;;;;;;;;;;19.06;28.96;100779.50;4414515;32;19954;-51
2021/04/16 13:42:21;;;;;;;;;;;;;;;19.14;28.71;100779.72;4414386;32;19980;-52
2021/04/16 13:44:47;;;;;;;;;;;;;;;19.10;28.93;100778.75;4414877;32;19961;-49
2021/04/16 13:47:15;;;;;;;;;;;;;;;19.04;28.97;100775.06;4413273;32;19968;-51
2021/04/16 13:49:40;;;;;;;;;;;;;;;19.06;28.94;100776.84;4415378;32;19958;-48
2021/04/16 13:52:06;;;;;;;;;;;;;;;19.07;28.88;100772.50;4415469;32;20413;-50
2021/04/16 13:54:32;;;;;;;;;;;;;;;19.07;29.14;100776.00;4413668;32;19999;-52
2021/04/16 13:56:58;;;;;;;;;;;;;;;19.06;29.02;100771.56;4413968;32;19988;-51
2021/04/16 13:59:25;;;;;;;;;;;;;;;19.05;28.89;100759.25;4410465;32;19972;-50
2021/04/16 14:01:51;;;;;;;;;;;;;;;19.04;28.91;100762.75;4416114;32;20367;-58
2021/04/16 14:04:16;;;;;;;;;;;;;;;18.50;27.37;100754.34;4413765;32;19973;-53
2021/04/16 14:06:42;;;;;;;;;;;;;;;17.59;29.42;100752.66;4414002;32;19961;-49
2021/04/16 14:09:08;;;;;;;;;;;;;;;17.41;29.33;100751.25;4414731;32;19954;-48
2021/04/16 14:11:34;;;;;;;;;;;;;;;17.91;29.26;100742.19;4415793;32;19958;-51
2021/04/16 14:14:00;;;;;;;;;;;;;;;18.21;28.97;100738.66;4413981;32;19973;-49
2021/04/16 14:16:26;;;;;;;;;;;;;;;18.36;28.73;100740.78;4412807;32;19968;-52
2021/04/16 14:18:52;;;;;;;;;;;;;;;18.47;28.94;100743.72;4412684;32;19950;-53
2021/04/16 14:21:18;;;;;;;;;;;;;;;18.68;28.31;100737.19;4415598;32;19958;-48
2021/04/16 14:23:43;;;;;;;;;;;;;;;18.67;28.49;100743.31;4416655;32;20335;-53
2021/04/16 14:26:09;;;;;;;;;;;;;;;18.68;28.44;100748.66;4417018;32;19989;-47
2021/04/16 14:28:35;;;;;;;;;;;;;;;18.68;28.51;100745.09;4404863;32;19951;-46
2021/04/16 14:31:01;;;;;;;;;;;;;;;18.68;28.47;100743.38;4400946;32;19961;-48
2021/04/16 14:33:27;;;;;;;;;;;;;;;18.72;28.64;100748.72;4408915;32;19954;-51
2021/04/16 14:35:53;;;;;;;;;;;;;;;18.78;28.57;100747.12;4416867;32;19950;-50